sensor_id;sensor_type;location;lat;lon;timestamp;temperature;humidity
48728;DHT22;34527;45.618;5.130;2023-05-19T00:01:06;10.90;99.90
48728;DHT22;34527;45.618;5.130;2023-05-19T00:03:34;10.90;99.90
48728;DHT22;34527;45.618;5.130;2023-05-19T00:06:02;11.00;99.90
48728;DHT22;34527;45.618;5.130;2023-05-19T00:08:33;11.00;99.90
48728;DHT22;34527;45.618;5.130;2023-05-19T00:10:59;11.00;99.90
48728;DHT22;34527;45.618;5.130;2023-05-19T00:13:26;11.10;99.90
48728;DHT22;34527;45.618;5.130;2023-05-19T00:15:52;11.10;99.90
48728;DHT22;34527;45.618;5.130;2023-05-19T00:18:18;11.10;99.90
48728;DHT22;34527;45.618;5.130;2023-05-19T00:20:43;11.00;99.90
48728;DHT22;34527;45.618;5.130;2023-05-19T00:23:10;11.00;99.90
48728;DHT22;34527;45.618;5.130;2023-05-19T00:25:36;11.00;99.90
48728;DHT22;34527;45.618;5.130;2023-05-19T00:28:02;11.00;99.90
48728;DHT22;34527;45.618;5.130;2023-05-19T00:30:28;11.00;99.90
48728;DHT22;34527;45.618;5.130;2023-05-19T00:32:54;11.10;99.90
48728;DHT22;34527;45.618;5.130;2023-05-19T00:35:21;11.20;99.90
48728;DHT22;34527;45.618;5.130;2023-05-19T00:37:47;11.20;99.90
48728;DHT22;34527;45.618;5.130;2023-05-19T00:40:13;11.20;99.90
48728;DHT22;34527;45.618;5.130;2023-05-19T00:42:39;11.30;99.90
48728;DHT22;34527;45.618;5.130;2023-05-19T00:45:05;11.40;99.90
48728;DHT22;34527;45.618;5.130;2023-05-19T00:47:32;11.30;99.90
48728;DHT22;34527;45.618;5.130;2023-05-19T00:49:58;11.30;99.90
48728;DHT22;34527;45.618;5.130;2023-05-19T00:52:24;11.30;99.90
48728;DHT22;34527;45.618;5.130;2023-05-19T00:54:51;11.30;99.90
48728;DHT22;34527;45.618;5.130;2023-05-19T00:57:17;11.20;99.90
48728;DHT22;34527;45.618;5.130;2023-05-19T00:59:42;11.20;99.90
48728;DHT22;34527;45.618;5.130;2023-05-19T01:02:08;11.20;99.90
48728;DHT22;34527;45.618;5.130;2023-05-19T01:04:35;11.20;99.90
48728;DHT22;34527;45.618;5.130;2023-05-19T01:07:02;11.30;99.90
48728;DHT22;34527;45.618;5.130;2023-05-19T01:09:27;11.30;99.90
48728;DHT22;34527;45.618;5.130;2023-05-19T01:11:54;11.20;99.90
48728;DHT22;34527;45.618;5.130;2023-05-19T01:14:20;11.20;99.90
48728;DHT22;34527;45.618;5.130;2023-05-19T01:16:57;11.20;99.90
48728;DHT22;34527;45.618;5.130;2023-05-19T01:20:02;11.20;99.90
48728;DHT22;34527;45.618;5.130;2023-05-19T01:31:14;11.10;99.90
48728;DHT22;34527;45.618;5.130;2023-05-19T01:33:42;11.10;99.90
48728;DHT22;34527;45.618;5.130;2023-05-19T01:36:10;11.10;99.90
48728;DHT22;34527;45.618;5.130;2023-05-19T01:38:38;11.10;99.90
48728;DHT22;34527;45.618;5.130;2023-05-19T01:41:05;11.10;99.90
48728;DHT22;34527;45.618;5.130;2023-05-19T01:43:32;11.10;99.90
48728;DHT22;34527;45.618;5.130;2023-05-19T01:45:57;11.00;99.90
48728;DHT22;34527;45.618;5.130;2023-05-19T01:48:24;11.00;99.90
48728;DHT22;34527;45.618;5.130;2023-05-19T01:50:51;11.00;99.90
48728;DHT22;34527;45.618;5.130;2023-05-19T01:53:16;11.00;99.90
48728;DHT22;34527;45.618;5.130;2023-05-19T01:55:48;11.00;99.90
48728;DHT22;34527;45.618;5.130;2023-05-19T02:00:52;11.10;99.90
48728;DHT22;34527;45.618;5.130;2023-05-19T02:11:44;11.10;99.90
48728;DHT22;34527;45.618;5.130;2023-05-19T02:14:19;11.00;99.90
48728;DHT22;34527;45.618;5.130;2023-05-19T02:16:47;11.00;99.90
48728;DHT22;34527;45.618;5.130;2023-05-19T02:19:39;11.00;99.90
48728;DHT22;34527;45.618;5.130;2023-05-19T02:22:05;11.00;99.90
48728;DHT22;34527;45.618;5.130;2023-05-19T02:24:31;11.00;99.90
48728;DHT22;34527;45.618;5.130;2023-05-19T02:26:56;11.10;99.90
48728;DHT22;34527;45.618;5.130;2023-05-19T02:29:22;11.10;99.90
48728;DHT22;34527;45.618;5.130;2023-05-19T02:31:47;11.10;99.90
48728;DHT22;34527;45.618;5.130;2023-05-19T02:34:13;11.00;99.90
48728;DHT22;34527;45.618;5.130;2023-05-19T02:36:41;11.00;99.90
48728;DHT22;34527;45.618;5.130;2023-05-19T02:39:08;10.90;99.90
48728;DHT22;34527;45.618;5.130;2023-05-19T02:41:34;10.90;99.90
48728;DHT22;34527;45.618;5.130;2023-05-19T02:43:59;11.00;99.90
48728;DHT22;34527;45.618;5.130;2023-05-19T02:46:25;10.90;99.90
48728;DHT22;34527;45.618;5.130;2023-05-19T02:48:51;10.80;99.90
48728;DHT22;34527;45.618;5.130;2023-05-19T02:51:17;10.60;99.90
48728;DHT22;34527;45.618;5.130;2023-05-19T02:53:42;10.60;99.90
48728;DHT22;34527;45.618;5.130;2023-05-19T02:56:08;10.40;99.90
48728;DHT22;34527;45.618;5.130;2023-05-19T02:58:33;10.40;99.90
48728;DHT22;34527;45.618;5.130;2023-05-19T03:00:59;10.40;99.90
48728;DHT22;34527;45.618;5.130;2023-05-19T03:03:25;10.40;99.90
48728;DHT22;34527;45.618;5.130;2023-05-19T03:05:51;10.20;99.90
48728;DHT22;34527;45.618;5.130;2023-05-19T03:08:18;10.20;99.90
48728;DHT22;34527;45.618;5.130;2023-05-19T03:10:45;10.10;99.90
48728;DHT22;34527;45.618;5.130;2023-05-19T03:13:11;10.00;99.90
48728;DHT22;34527;45.618;5.130;2023-05-19T03:15:37;10.00;99.90
48728;DHT22;34527;45.618;5.130;2023-05-19T03:18:03;10.00;99.90
48728;DHT22;34527;45.618;5.130;2023-05-19T03:20:28;10.00;99.90
48728;DHT22;34527;45.618;5.130;2023-05-19T03:22:58;10.00;99.90
48728;DHT22;34527;45.618;5.130;2023-05-19T03:25:24;10.10;99.90
48728;DHT22;34527;45.618;5.130;2023-05-19T03:27:50;10.00;99.90
48728;DHT22;34527;45.618;5.130;2023-05-19T03:30:16;10.00;99.90
48728;DHT22;34527;45.618;5.130;2023-05-19T03:32:41;9.90;99.90
48728;DHT22;34527;45.618;5.130;2023-05-19T03:35:07;9.90;99.90
48728;DHT22;34527;45.618;5.130;2023-05-19T03:37:32;9.90;99.90
48728;DHT22;34527;45.618;5.130;2023-05-19T03:39:58;9.90;99.90
48728;DHT22;34527;45.618;5.130;2023-05-19T03:42:24;10.00;99.90
48728;DHT22;34527;45.618;5.130;2023-05-19T03:44:50;10.10;99.90
48728;DHT22;34527;45.618;5.130;2023-05-19T03:47:16;10.10;99.90
48728;DHT22;34527;45.618;5.130;2023-05-19T03:49:41;10.00;99.90
48728;DHT22;34527;45.618;5.130;2023-05-19T03:52:07;10.10;99.90
48728;DHT22;34527;45.618;5.130;2023-05-19T03:54:34;10.10;99.90
48728;DHT22;34527;45.618;5.130;2023-05-19T03:57:00;10.20;99.90
48728;DHT22;34527;45.618;5.130;2023-05-19T03:59:26;10.20;99.90
48728;DHT22;34527;45.618;5.130;2023-05-19T04:01:52;10.20;99.90
48728;DHT22;34527;45.618;5.130;2023-05-19T04:04:18;10.20;99.90
48728;DHT22;34527;45.618;5.130;2023-05-19T04:06:44;10.30;99.90
48728;DHT22;34527;45.618;5.130;2023-05-19T04:09:13;10.30;99.90
48728;DHT22;34527;45.618;5.130;2023-05-19T04:11:40;10.30;99.90
48728;DHT22;34527;45.618;5.130;2023-05-19T04:14:06;10.30;99.90
48728;DHT22;34527;45.618;5.130;2023-05-19T04:16:32;10.20;99.90
48728;DHT22;34527;45.618;5.130;2023-05-19T04:18:58;10.30;99.90
48728;DHT22;34527;45.618;5.130;2023-05-19T04:21:23;10.20;99.90
48728;DHT22;34527;45.618;5.130;2023-05-19T04:23:49;10.30;99.90
48728;DHT22;34527;45.618;5.130;2023-05-19T04:26:14;10.30;99.90
48728;DHT22;34527;45.618;5.130;2023-05-19T04:28:40;10.20;99.90
48728;DHT22;34527;45.618;5.130;2023-05-19T04:31:09;10.20;99.90
48728;DHT22;34527;45.618;5.130;2023-05-19T04:33:36;10.20;99.90
48728;DHT22;34527;45.618;5.130;2023-05-19T04:36:01;10.20;99.90
48728;DHT22;34527;45.618;5.130;2023-05-19T04:38:35;10.20;99.90
48728;DHT22;34527;45.618;5.130;2023-05-19T04:41:02;10.30;99.90
48728;DHT22;34527;45.618;5.130;2023-05-19T04:43:28;10.20;99.90
48728;DHT22;34527;45.618;5.130;2023-05-19T04:45:54;10.30;99.90
48728;DHT22;34527;45.618;5.130;2023-05-19T04:48:20;10.30;99.90
48728;DHT22;34527;45.618;5.130;2023-05-19T04:50:49;10.30;99.90
48728;DHT22;34527;45.618;5.130;2023-05-19T04:53:16;10.30;99.90
48728;DHT22;34527;45.618;5.130;2023-05-19T04:55:43;10.30;99.90
48728;DHT22;34527;45.618;5.130;2023-05-19T04:58:08;10.40;99.90
48728;DHT22;34527;45.618;5.130;2023-05-19T05:00:35;10.40;99.90
48728;DHT22;34527;45.618;5.130;2023-05-19T05:03:01;10.50;99.90
48728;DHT22;34527;45.618;5.130;2023-05-19T05:05:29;10.50;99.90
48728;DHT22;34527;45.618;5.130;2023-05-19T05:07:55;10.60;99.90
48728;DHT22;34527;45.618;5.130;2023-05-19T05:10:21;10.60;99.90
48728;DHT22;34527;45.618;5.130;2023-05-19T05:12:47;10.60;99.90
48728;DHT22;34527;45.618;5.130;2023-05-19T05:15:13;10.60;99.90
48728;DHT22;34527;45.618;5.130;2023-05-19T05:17:39;10.60;99.90
48728;DHT22;34527;45.618;5.130;2023-05-19T05:20:05;10.70;99.90
48728;DHT22;34527;45.618;5.130;2023-05-19T05:22:32;10.80;99.90
48728;DHT22;34527;45.618;5.130;2023-05-19T05:24:58;10.90;99.90
48728;DHT22;34527;45.618;5.130;2023-05-19T05:27:23;10.90;99.90
48728;DHT22;34527;45.618;5.130;2023-05-19T05:29:49;10.90;99.90
48728;DHT22;34527;45.618;5.130;2023-05-19T05:32:15;11.00;99.90
48728;DHT22;34527;45.618;5.130;2023-05-19T05:34:41;11.00;99.90
48728;DHT22;34527;45.618;5.130;2023-05-19T05:37:07;11.10;99.90
48728;DHT22;34527;45.618;5.130;2023-05-19T05:39:32;11.20;99.90
48728;DHT22;34527;45.618;5.130;2023-05-19T05:41:58;11.20;99.90
48728;DHT22;34527;45.618;5.130;2023-05-19T05:44:24;11.20;99.90
48728;DHT22;34527;45.618;5.130;2023-05-19T05:46:49;11.20;99.90
48728;DHT22;34527;45.618;5.130;2023-05-19T05:49:15;11.30;99.90
48728;DHT22;34527;45.618;5.130;2023-05-19T05:51:41;11.40;99.90
48728;DHT22;34527;45.618;5.130;2023-05-19T05:54:09;11.40;99.90
48728;DHT22;34527;45.618;5.130;2023-05-19T05:56:36;11.40;99.90
48728;DHT22;34527;45.618;5.130;2023-05-19T05:59:02;11.50;99.90
48728;DHT22;34527;45.618;5.130;2023-05-19T06:01:28;11.50;99.90
48728;DHT22;34527;45.618;5.130;2023-05-19T06:03:55;11.50;99.90
48728;DHT22;34527;45.618;5.130;2023-05-19T06:06:21;11.60;99.90
48728;DHT22;34527;45.618;5.130;2023-05-19T06:08:46;11.60;99.90
48728;DHT22;34527;45.618;5.130;2023-05-19T06:11:12;11.70;99.90
48728;DHT22;34527;45.618;5.130;2023-05-19T06:13:38;11.90;99.90
48728;DHT22;34527;45.618;5.130;2023-05-19T06:16:05;11.90;99.90
48728;DHT22;34527;45.618;5.130;2023-05-19T06:18:31;12.10;99.90
48728;DHT22;34527;45.618;5.130;2023-05-19T06:20:57;12.10;99.90
48728;DHT22;34527;45.618;5.130;2023-05-19T06:23:22;12.20;99.90
48728;DHT22;34527;45.618;5.130;2023-05-19T06:25:49;12.10;99.90
48728;DHT22;34527;45.618;5.130;2023-05-19T06:28:15;12.00;99.90
48728;DHT22;34527;45.618;5.130;2023-05-19T06:30:40;12.10;99.90
48728;DHT22;34527;45.618;5.130;2023-05-19T06:33:06;12.20;99.90
48728;DHT22;34527;45.618;5.130;2023-05-19T06:35:32;12.30;99.90
48728;DHT22;34527;45.618;5.130;2023-05-19T06:37:57;12.50;99.90
48728;DHT22;34527;45.618;5.130;2023-05-19T06:40:23;12.40;99.90
48728;DHT22;34527;45.618;5.130;2023-05-19T06:42:49;12.50;99.90
48728;DHT22;34527;45.618;5.130;2023-05-19T06:45:14;12.50;99.90
48728;DHT22;34527;45.618;5.130;2023-05-19T06:47:40;12.60;99.90
48728;DHT22;34527;45.618;5.130;2023-05-19T06:50:07;12.60;99.90
48728;DHT22;34527;45.618;5.130;2023-05-19T06:52:33;12.70;99.90
48728;DHT22;34527;45.618;5.130;2023-05-19T06:54:59;12.70;99.90
48728;DHT22;34527;45.618;5.130;2023-05-19T06:57:25;12.70;99.90
48728;DHT22;34527;45.618;5.130;2023-05-19T06:59:50;12.80;99.90
48728;DHT22;34527;45.618;5.130;2023-05-19T07:02:16;12.80;99.90
48728;DHT22;34527;45.618;5.130;2023-05-19T07:04:42;12.80;99.90
48728;DHT22;34527;45.618;5.130;2023-05-19T07:07:07;12.90;99.90
48728;DHT22;34527;45.618;5.130;2023-05-19T07:09:33;13.00;99.90
48728;DHT22;34527;45.618;5.130;2023-05-19T07:11:59;13.10;99.90
48728;DHT22;34527;45.618;5.130;2023-05-19T07:14:25;13.10;99.90
48728;DHT22;34527;45.618;5.130;2023-05-19T07:16:51;13.30;99.90
48728;DHT22;34527;45.618;5.130;2023-05-19T07:19:17;13.30;99.90
48728;DHT22;34527;45.618;5.130;2023-05-19T07:21:46;13.20;99.90
48728;DHT22;34527;45.618;5.130;2023-05-19T07:24:12;13.20;99.90
48728;DHT22;34527;45.618;5.130;2023-05-19T07:26:38;13.30;99.90
48728;DHT22;34527;45.618;5.130;2023-05-19T07:29:03;13.30;99.90
48728;DHT22;34527;45.618;5.130;2023-05-19T07:31:29;13.30;99.90
48728;DHT22;34527;45.618;5.130;2023-05-19T07:33:55;13.30;99.90
48728;DHT22;34527;45.618;5.130;2023-05-19T07:36:21;13.30;99.90
48728;DHT22;34527;45.618;5.130;2023-05-19T07:38:47;13.40;99.90
48728;DHT22;34527;45.618;5.130;2023-05-19T07:41:12;13.40;99.90
48728;DHT22;34527;45.618;5.130;2023-05-19T07:43:38;13.50;99.90
48728;DHT22;34527;45.618;5.130;2023-05-19T07:46:04;13.50;99.90
48728;DHT22;34527;45.618;5.130;2023-05-19T07:48:30;13.60;99.90
48728;DHT22;34527;45.618;5.130;2023-05-19T07:50:55;13.60;99.90
48728;DHT22;34527;45.618;5.130;2023-05-19T07:53:21;13.60;99.90
48728;DHT22;34527;45.618;5.130;2023-05-19T07:55:47;13.80;99.90
48728;DHT22;34527;45.618;5.130;2023-05-19T07:58:13;14.00;99.90
48728;DHT22;34527;45.618;5.130;2023-05-19T08:00:39;14.10;99.90
48728;DHT22;34527;45.618;5.130;2023-05-19T08:03:10;14.00;99.90
48728;DHT22;34527;45.618;5.130;2023-05-19T08:05:36;14.10;99.90
48728;DHT22;34527;45.618;5.130;2023-05-19T08:08:02;14.30;99.90
48728;DHT22;34527;45.618;5.130;2023-05-19T08:10:28;14.60;99.90
48728;DHT22;34527;45.618;5.130;2023-05-19T08:12:53;14.60;99.90
48728;DHT22;34527;45.618;5.130;2023-05-19T08:15:19;14.40;99.90
48728;DHT22;34527;45.618;5.130;2023-05-19T08:17:45;14.40;99.90
48728;DHT22;34527;45.618;5.130;2023-05-19T08:20:11;14.50;99.90
48728;DHT22;34527;45.618;5.130;2023-05-19T08:22:37;14.50;99.90
48728;DHT22;34527;45.618;5.130;2023-05-19T08:25:03;14.80;99.90
48728;DHT22;34527;45.618;5.130;2023-05-19T08:27:32;14.90;99.90
48728;DHT22;34527;45.618;5.130;2023-05-19T08:29:57;14.90;99.90
48728;DHT22;34527;45.618;5.130;2023-05-19T08:32:23;14.80;99.90
48728;DHT22;34527;45.618;5.130;2023-05-19T08:34:49;14.90;99.90
48728;DHT22;34527;45.618;5.130;2023-05-19T08:37:14;14.90;99.90
48728;DHT22;34527;45.618;5.130;2023-05-19T08:39:40;15.10;99.90
48728;DHT22;34527;45.618;5.130;2023-05-19T08:42:06;15.20;99.90
48728;DHT22;34527;45.618;5.130;2023-05-19T08:44:37;15.20;99.90
48728;DHT22;34527;45.618;5.130;2023-05-19T08:47:04;15.20;99.90
48728;DHT22;34527;45.618;5.130;2023-05-19T08:49:34;15.20;99.90
48728;DHT22;34527;45.618;5.130;2023-05-19T08:55:11;15.20;99.90
48728;DHT22;34527;45.618;5.130;2023-05-19T08:57:31;15.20;99.90
48728;DHT22;34527;45.618;5.130;2023-05-19T08:59:57;15.30;99.90
48728;DHT22;34527;45.618;5.130;2023-05-19T09:02:23;15.40;99.90
48728;DHT22;34527;45.618;5.130;2023-05-19T09:04:49;15.50;99.90
48728;DHT22;34527;45.618;5.130;2023-05-19T09:07:15;15.40;99.90
48728;DHT22;34527;45.618;5.130;2023-05-19T09:09:41;15.50;99.90
48728;DHT22;34527;45.618;5.130;2023-05-19T09:12:12;15.50;99.90
48728;DHT22;34527;45.618;5.130;2023-05-19T09:14:38;15.50;99.90
48728;DHT22;34527;45.618;5.130;2023-05-19T09:17:05;15.60;99.90
48728;DHT22;34527;45.618;5.130;2023-05-19T09:19:31;15.50;99.90
48728;DHT22;34527;45.618;5.130;2023-05-19T09:21:58;15.60;99.90
48728;DHT22;34527;45.618;5.130;2023-05-19T09:24:31;15.80;99.90
48728;DHT22;34527;45.618;5.130;2023-05-19T09:26:58;15.90;99.90
48728;DHT22;34527;45.618;5.130;2023-05-19T09:29:24;15.90;99.90
48728;DHT22;34527;45.618;5.130;2023-05-19T09:31:54;16.10;99.90
48728;DHT22;34527;45.618;5.130;2023-05-19T09:34:24;16.10;99.90
48728;DHT22;34527;45.618;5.130;2023-05-19T09:36:51;16.30;99.90
48728;DHT22;34527;45.618;5.130;2023-05-19T09:39:22;16.20;99.90
48728;DHT22;34527;45.618;5.130;2023-05-19T09:41:52;16.20;99.90
48728;DHT22;34527;45.618;5.130;2023-05-19T09:44:21;16.00;99.90
48728;DHT22;34527;45.618;5.130;2023-05-19T09:46:57;15.90;99.90
48728;DHT22;34527;45.618;5.130;2023-05-19T09:49:27;16.10;99.90
48728;DHT22;34527;45.618;5.130;2023-05-19T09:52:02;16.30;99.90
48728;DHT22;34527;45.618;5.130;2023-05-19T09:54:29;16.40;99.90
48728;DHT22;34527;45.618;5.130;2023-05-19T09:56:57;16.40;99.90
48728;DHT22;34527;45.618;5.130;2023-05-19T09:59:24;16.30;99.90
48728;DHT22;34527;45.618;5.130;2023-05-19T10:01:54;16.30;99.90
48728;DHT22;34527;45.618;5.130;2023-05-19T10:04:25;16.50;99.90
48728;DHT22;34527;45.618;5.130;2023-05-19T10:06:52;16.70;99.90
48728;DHT22;34527;45.618;5.130;2023-05-19T10:09:22;16.80;99.90
48728;DHT22;34527;45.618;5.130;2023-05-19T10:11:52;16.60;99.90
48728;DHT22;34527;45.618;5.130;2023-05-19T10:14:21;16.90;99.90
48728;DHT22;34527;45.618;5.130;2023-05-19T10:16:50;16.80;99.90
48728;DHT22;34527;45.618;5.130;2023-05-19T10:19:19;16.40;99.90
48728;DHT22;34527;45.618;5.130;2023-05-19T10:21:45;16.70;99.90
48728;DHT22;34527;45.618;5.130;2023-05-19T10:24:11;16.90;99.90
48728;DHT22;34527;45.618;5.130;2023-05-19T10:26:38;17.00;99.90
48728;DHT22;34527;45.618;5.130;2023-05-19T10:29:05;16.90;99.90
48728;DHT22;34527;45.618;5.130;2023-05-19T10:31:33;16.90;99.90
48728;DHT22;34527;45.618;5.130;2023-05-19T10:36:46;17.30;99.90
48728;DHT22;34527;45.618;5.130;2023-05-19T10:39:36;17.50;99.90
48728;DHT22;34527;45.618;5.130;2023-05-19T10:42:14;16.90;99.90
48728;DHT22;34527;45.618;5.130;2023-05-19T10:45:13;16.60;99.90
48728;DHT22;34527;45.618;5.130;2023-05-19T10:47:41;16.80;99.90
48728;DHT22;34527;45.618;5.130;2023-05-19T10:50:08;17.20;99.90
48728;DHT22;34527;45.618;5.130;2023-05-19T10:52:38;17.40;99.90
48728;DHT22;34527;45.618;5.130;2023-05-19T10:55:06;17.70;99.90
48728;DHT22;34527;45.618;5.130;2023-05-19T10:57:33;17.20;99.90
48728;DHT22;34527;45.618;5.130;2023-05-19T11:00:03;17.30;99.90
48728;DHT22;34527;45.618;5.130;2023-05-19T11:02:36;17.50;99.90
48728;DHT22;34527;45.618;5.130;2023-05-19T11:05:13;17.60;99.90
48728;DHT22;34527;45.618;5.130;2023-05-19T11:07:41;17.60;99.90
48728;DHT22;34527;45.618;5.130;2023-05-19T11:10:09;17.80;99.90
48728;DHT22;34527;45.618;5.130;2023-05-19T11:12:41;17.80;99.90
48728;DHT22;34527;45.618;5.130;2023-05-19T11:15:14;17.90;99.90
48728;DHT22;34527;45.618;5.130;2023-05-19T11:17:41;17.80;99.90
48728;DHT22;34527;45.618;5.130;2023-05-19T11:20:26;18.00;99.90
48728;DHT22;34527;45.618;5.130;2023-05-19T11:23:14;17.80;99.90
48728;DHT22;34527;45.618;5.130;2023-05-19T11:25:45;17.50;99.90
48728;DHT22;34527;45.618;5.130;2023-05-19T11:28:11;17.40;99.90
48728;DHT22;34527;45.618;5.130;2023-05-19T11:30:40;17.70;99.90
48728;DHT22;34527;45.618;5.130;2023-05-19T11:33:06;17.70;99.90
48728;DHT22;34527;45.618;5.130;2023-05-19T11:35:34;17.50;99.90
48728;DHT22;34527;45.618;5.130;2023-05-19T11:38:00;17.40;99.90
48728;DHT22;34527;45.618;5.130;2023-05-19T11:40:26;17.40;99.90
48728;DHT22;34527;45.618;5.130;2023-05-19T11:42:51;17.30;99.90
48728;DHT22;34527;45.618;5.130;2023-05-19T11:45:26;17.60;99.90
48728;DHT22;34527;45.618;5.130;2023-05-19T11:47:54;17.90;99.90
48728;DHT22;34527;45.618;5.130;2023-05-19T11:50:21;17.60;99.90
48728;DHT22;34527;45.618;5.130;2023-05-19T11:52:47;17.70;99.90
48728;DHT22;34527;45.618;5.130;2023-05-19T11:55:19;17.60;99.90
48728;DHT22;34527;45.618;5.130;2023-05-19T12:00:21;17.40;99.90
48728;DHT22;34527;45.618;5.130;2023-05-19T12:02:47;17.50;99.90
48728;DHT22;34527;45.618;5.130;2023-05-19T12:05:23;17.90;99.90
48728;DHT22;34527;45.618;5.130;2023-05-19T12:07:50;18.20;99.90
48728;DHT22;34527;45.618;5.130;2023-05-19T12:10:23;17.90;99.90
48728;DHT22;34527;45.618;5.130;2023-05-19T12:12:50;17.70;99.90
48728;DHT22;34527;45.618;5.130;2023-05-19T12:15:23;17.60;99.90
48728;DHT22;34527;45.618;5.130;2023-05-19T12:17:49;18.00;99.90
48728;DHT22;34527;45.618;5.130;2023-05-19T12:20:17;18.00;99.90
48728;DHT22;34527;45.618;5.130;2023-05-19T12:22:43;17.90;99.90
48728;DHT22;34527;45.618;5.130;2023-05-19T12:25:09;17.80;99.90
48728;DHT22;34527;45.618;5.130;2023-05-19T12:27:35;17.70;99.90
48728;DHT22;34527;45.618;5.130;2023-05-19T12:30:04;17.60;99.90
48728;DHT22;34527;45.618;5.130;2023-05-19T12:32:32;17.60;99.90
48728;DHT22;34527;45.618;5.130;2023-05-19T12:35:01;17.40;99.90
48728;DHT22;34527;45.618;5.130;2023-05-19T12:37:27;17.40;99.90
48728;DHT22;34527;45.618;5.130;2023-05-19T12:39:54;17.50;99.90
48728;DHT22;34527;45.618;5.130;2023-05-19T12:42:21;17.40;99.90
48728;DHT22;34527;45.618;5.130;2023-05-19T12:44:51;17.50;99.90
48728;DHT22;34527;45.618;5.130;2023-05-19T12:47:18;17.50;99.90
48728;DHT22;34527;45.618;5.130;2023-05-19T12:52:26;17.60;99.90
48728;DHT22;34527;45.618;5.130;2023-05-19T12:55:02;17.60;99.90
48728;DHT22;34527;45.618;5.130;2023-05-19T12:57:38;17.60;99.90
48728;DHT22;34527;45.618;5.130;2023-05-19T13:00:07;17.80;99.90
48728;DHT22;34527;45.618;5.130;2023-05-19T13:02:58;17.80;99.90
48728;DHT22;34527;45.618;5.130;2023-05-19T13:05:25;17.90;99.90
48728;DHT22;34527;45.618;5.130;2023-05-19T13:07:54;18.00;99.90
48728;DHT22;34527;45.618;5.130;2023-05-19T13:10:20;18.00;99.90
48728;DHT22;34527;45.618;5.130;2023-05-19T13:12:46;18.10;99.90
48728;DHT22;34527;45.618;5.130;2023-05-19T13:15:11;18.10;99.90
48728;DHT22;34527;45.618;5.130;2023-05-19T13:17:37;18.00;99.90
48728;DHT22;34527;45.618;5.130;2023-05-19T13:20:03;18.00;99.90
48728;DHT22;34527;45.618;5.130;2023-05-19T13:22:29;18.00;99.90
48728;DHT22;34527;45.618;5.130;2023-05-19T13:24:55;18.10;99.90
48728;DHT22;34527;45.618;5.130;2023-05-19T13:27:23;18.00;99.90
48728;DHT22;34527;45.618;5.130;2023-05-19T13:29:49;17.90;99.90
48728;DHT22;34527;45.618;5.130;2023-05-19T13:32:15;17.80;99.90
48728;DHT22;34527;45.618;5.130;2023-05-19T13:34:40;17.80;99.90
48728;DHT22;34527;45.618;5.130;2023-05-19T13:37:06;17.80;99.90
48728;DHT22;34527;45.618;5.130;2023-05-19T13:39:34;17.70;99.90
48728;DHT22;34527;45.618;5.130;2023-05-19T13:41:59;17.70;99.90
48728;DHT22;34527;45.618;5.130;2023-05-19T13:44:25;17.60;99.90
48728;DHT22;34527;45.618;5.130;2023-05-19T13:46:51;17.50;99.90
48728;DHT22;34527;45.618;5.130;2023-05-19T13:49:16;17.50;99.90
48728;DHT22;34527;45.618;5.130;2023-05-19T13:51:42;17.50;99.90
48728;DHT22;34527;45.618;5.130;2023-05-19T13:54:08;17.40;99.90
48728;DHT22;34527;45.618;5.130;2023-05-19T13:56:34;17.40;99.90
48728;DHT22;34527;45.618;5.130;2023-05-19T13:59:00;17.40;99.90
48728;DHT22;34527;45.618;5.130;2023-05-19T14:01:27;17.40;99.90
48728;DHT22;34527;45.618;5.130;2023-05-19T14:03:52;17.30;99.90
48728;DHT22;34527;45.618;5.130;2023-05-19T14:06:18;17.30;99.90
48728;DHT22;34527;45.618;5.130;2023-05-19T14:08:44;17.30;99.90
48728;DHT22;34527;45.618;5.130;2023-05-19T14:11:19;17.40;99.90
48728;DHT22;34527;45.618;5.130;2023-05-19T14:13:47;17.30;99.90
48728;DHT22;34527;45.618;5.130;2023-05-19T14:16:15;17.30;99.90
48728;DHT22;34527;45.618;5.130;2023-05-19T14:18:40;17.30;99.90
48728;DHT22;34527;45.618;5.130;2023-05-19T14:21:06;17.30;99.90
48728;DHT22;34527;45.618;5.130;2023-05-19T14:23:32;17.30;99.90
48728;DHT22;34527;45.618;5.130;2023-05-19T14:25:58;17.30;99.90
48728;DHT22;34527;45.618;5.130;2023-05-19T14:28:24;17.30;99.90
48728;DHT22;34527;45.618;5.130;2023-05-19T14:30:49;17.30;99.90
48728;DHT22;34527;45.618;5.130;2023-05-19T14:33:15;17.40;99.90
48728;DHT22;34527;45.618;5.130;2023-05-19T14:35:41;17.30;99.90
48728;DHT22;34527;45.618;5.130;2023-05-19T14:38:06;17.40;99.90
48728;DHT22;34527;45.618;5.130;2023-05-19T14:40:33;17.40;99.90
48728;DHT22;34527;45.618;5.130;2023-05-19T14:43:00;17.50;99.90
48728;DHT22;34527;45.618;5.130;2023-05-19T14:45:26;17.60;99.90
48728;DHT22;34527;45.618;5.130;2023-05-19T14:47:51;17.60;99.90
48728;DHT22;34527;45.618;5.130;2023-05-19T14:50:17;17.60;99.90
48728;DHT22;34527;45.618;5.130;2023-05-19T14:52:43;17.70;99.90
48728;DHT22;34527;45.618;5.130;2023-05-19T14:55:08;17.70;99.90
48728;DHT22;34527;45.618;5.130;2023-05-19T14:57:34;17.70;99.90
48728;DHT22;34527;45.618;5.130;2023-05-19T14:59:59;17.70;99.90
48728;DHT22;34527;45.618;5.130;2023-05-19T15:02:25;17.70;99.90
48728;DHT22;34527;45.618;5.130;2023-05-19T15:04:50;17.70;99.90
48728;DHT22;34527;45.618;5.130;2023-05-19T15:07:16;17.80;99.90
48728;DHT22;34527;45.618;5.130;2023-05-19T15:09:42;17.70;99.90
48728;DHT22;34527;45.618;5.130;2023-05-19T15:12:08;17.70;99.90
48728;DHT22;34527;45.618;5.130;2023-05-19T15:14:33;17.70;99.90
48728;DHT22;34527;45.618;5.130;2023-05-19T15:16:59;17.80;99.90
48728;DHT22;34527;45.618;5.130;2023-05-19T15:19:25;17.70;99.90
48728;DHT22;34527;45.618;5.130;2023-05-19T15:21:50;17.70;99.90
48728;DHT22;34527;45.618;5.130;2023-05-19T15:24:16;17.70;99.90
48728;DHT22;34527;45.618;5.130;2023-05-19T15:26:42;17.60;99.90
48728;DHT22;34527;45.618;5.130;2023-05-19T15:29:07;17.60;99.90
48728;DHT22;34527;45.618;5.130;2023-05-19T15:31:33;17.50;99.90
48728;DHT22;34527;45.618;5.130;2023-05-19T15:33:58;17.50;99.90
48728;DHT22;34527;45.618;5.130;2023-05-19T15:36:24;17.40;99.90
48728;DHT22;34527;45.618;5.130;2023-05-19T15:38:49;17.50;99.90
48728;DHT22;34527;45.618;5.130;2023-05-19T15:41:15;17.40;99.90
48728;DHT22;34527;45.618;5.130;2023-05-19T15:43:40;17.40;99.90
48728;DHT22;34527;45.618;5.130;2023-05-19T15:46:06;17.40;99.90
48728;DHT22;34527;45.618;5.130;2023-05-19T15:48:32;17.40;99.90
48728;DHT22;34527;45.618;5.130;2023-05-19T15:50:58;17.40;99.90
48728;DHT22;34527;45.618;5.130;2023-05-19T15:53:24;17.40;99.90
48728;DHT22;34527;45.618;5.130;2023-05-19T15:55:50;17.40;99.90
48728;DHT22;34527;45.618;5.130;2023-05-19T15:58:16;17.40;99.90
48728;DHT22;34527;45.618;5.130;2023-05-19T16:00:42;17.40;99.90